首页
METAR-TAF:

METAR-TAF

机场 :

赛义德·易卜拉欣王子国际机场

莫洛尼, 葛摩

纬度: 11-32S, 经度: 043-16E, 海拔: 29米

当前天气观测

该预报发布于19分钟前的20:00 UTC
风速3节,风向北转东北
温度 26°C
湿度 84%
气压 1013 hPa
能见度10公里或以上
少量云层高于2000英尺

METAR: FMCH 142000Z 03003KT 9999 FEW020 26/23 Q1013 NOSIG

时间: 23:19 (20:19 UTC)

预报

该预报发布于3小时和19分钟前的17:00 UTC
预报有效从14日的 18点(UTC)到 15日的 24点(UTC)
风速4节,风向
能见度10公里或以上
少量云层高于2000英尺
成为
从 15日的 05点(UTC)到 15日的 07点(UTC)
风速12节,风向西南
成为
从 15日的 16点(UTC)到 15日的 18点(UTC)
风速4节,风向

TAF: FMCH 141700Z 1418/1524 10004KT 9999 FEW020 BECMG 1505/1507 22012KT BECMG 1516/1518 10004KT

超过4000个机场的气象观测和天气预报(METAR&TAF报告)。

可查询的气象台以黄色和红色小点在地图上表示。

将鼠标移到小点上方,可查看气象台名称。

然后点击查看天气观测和预报。

如需切换地图:点击带黑十字的绿色按钮放大地图;点击带横线的绿色按钮缩小地图;或者点击绿色箭头查看邻近地区的地图。


METAR-TAF: